Main page
METAR-TAF:

METAR-TAF

Airports :

A Coruña Airport

A Coruña, Spain

latitude: 43-18N, longitude: 008-23W, elevation: 97 m

Current weather observation

The report was made 14 minutes ago, at 01:30 UTC
Wind 5 kt from the North/Northeast, varying between North/Northwest and East/Northeast
Temperature 18°C
Humidity 88%
Pressure 1020 hPa
Visibility 10 km or more
no clouds below 1500 m and no cumulonimbus

METAR: LECO 220130Z AUTO 02005KT 340V060 CAVOK 18/16 Q1020

Time: 03:44 (01:44 UTC)

Forecast

The report was made 5 hours and 44 minutes ago, at 20:00 UTC
Forecast valid from 21 at 21 UTC to 22 at 21 UTC
Wind 9 kt from the North
Visibility 10 km or more
Scattered clouds at a height of 3000 ft
Probability 30% :
Temporary
from 21 at 23 UTC to 22 at 07 UTC
Visibility: 3000 m
Broken clouds at a height of 1000 ft
mist

TAF: LECO 212000Z 2121/2221 36009KT 9999 SCT030 TX26/2214Z TN17/2205Z PROB30 TEMPO 2123/2207 3000 BR BKN010

Weather observations and forecasts of more than 4000 airports (METAR and TAF reports).

The available stations are represented by yellow and red dots on the map.

Hover mouse over dot to see the name of the station.

Then click to see weather observations and forecasts.

To change the map : click on the green buttons with a black cross to zoom in, on the green button with a dash to zoom out, or on the green arrows for adjacent maps.


METAR-TAF: